Aikou Maru — JD3395 — position and weather

sailwx.info

Track history (hours):
 
Tides and Currents Weather Stations Pressure Air Temp Water Temp Dewpoint Dewpoint Depression Visibility Wind Speed Wind Dir Waves Ship Positions

Aikou Maru

Last reported at 2018-Feb-22 18:30 UTC. Time now 2018-Feb-22 18:43 UTC.
Position N 34°57' E 136°45'.

Length 89 m; draft 5.7 m.

Type: Tanker. MMSI: 431003751.

Date/timePositionNaut miles runAvg speedWind from/ knotsBaromVisibWave heightAir tempDewpointWater temp
2018-Feb-22 18:30N 34°57' E 136°45'0 0.1
2018-Feb-22 18:00N 34°57' E 136°45'0 0.0
2018-Feb-22 17:30N 34°57' E 136°45'0 0.0
2018-Feb-22 17:00N 34°57' E 136°45'0 0.0
2018-Feb-22 16:30N 34°57' E 136°45'0 0.0
2018-Feb-22 16:00N 34°57' E 136°45'0 0.0
2018-Feb-22 15:30N 34°57' E 136°45'0 0.0
2018-Feb-22 14:59N 34°57' E 136°45'0 0.0
2018-Feb-22 14:30N 34°57' E 136°45'0 0.0
2018-Feb-22 14:00N 34°57' E 136°45'0 0.0
2018-Feb-22 13:30N 34°57' E 136°45'0 0.0
2018-Feb-22 13:00N 34°57' E 136°45'0 0.0
2018-Feb-22 12:30N 34°57' E 136°45'0 0.0
2018-Feb-22 12:00N 34°57' E 136°45'0 0.0
2018-Feb-22 11:30N 34°57' E 136°45'0 0.1
2018-Feb-22 11:00N 34°57' E 136°45'0 0.1
2018-Feb-22 10:30N 34°57' E 136°45'0 0.0
2018-Feb-22 10:00N 34°57' E 136°45'1 1.2
2018-Feb-22 09:30N 34°57' E 136°46'612.6
2018-Feb-22 09:00N 34°51' E 136°46'713.1
2018-Feb-22 08:30N 34°44' E 136°49'103 8.4
2018-Feb-21 20:11N 33°49' E 135°03'213.6
2018-Feb-21 20:00N 33°51' E 135°02'713.5
2018-Feb-21 19:30N 33°57' E 134°59'713.6
2018-Feb-21 19:00N 34°04' E 134°59'713.5
2018-Feb-21 18:30N 34°11' E 134°59'713.3
2018-Feb-21 18:01N 34°18' E 134°59'713.6
2018-Feb-21 17:30N 34°24' E 135°00'713.3
2018-Feb-21 17:00N 34°31' E 135°02'611.0
2018-Feb-21 16:30N 34°36' E 135°03'511.1
2018-Feb-21 16:00N 34°36' E 134°56'611.3
2018-Feb-21 15:30N 34°33' E 134°49'611.8
2018-Feb-21 15:00N 34°31' E 134°43'612.2
2018-Feb-21 14:30N 34°29' E 134°36'612.4
2018-Feb-21 14:00N 34°26' E 134°29'89 6.2
2018-Feb-20 23:46N 34°02' E 132°46'414.1
2018-Feb-20 23:29N 33°58' E 132°44'713.3
2018-Feb-20 22:57N 33°54' E 132°37'613.4
2018-Feb-20 22:30N 33°49' E 132°32'713.1
2018-Feb-20 21:59N 33°44' E 132°27'713.0
2018-Feb-20 21:28N 33°40' E 132°21'713.2
2018-Feb-20 20:59N 33°36' E 132°15'1412.7
2018-Feb-20 19:54N 33°26' E 132°03'512.3
2018-Feb-20 19:30N 33°22' E 131°59'611.3
2018-Feb-20 18:59N 33°17' E 132°00'1111.9
2018-Feb-20 18:02N 33°06' E 132°04'011.6
2018-Feb-20 18:01N 33°06' E 132°04'  
2018-Feb-18 10:24N 33°23' E 131°60'1312.3
2018-Feb-18 09:23N 33°32' E 132°10'613.4
2018-Feb-18 08:58N 33°36' E 132°15'713.6
2018-Feb-18 08:28N 33°41' E 132°21'714.0
2018-Feb-18 08:00N 33°46' E 132°26'1014.6
2018-Feb-18 07:19N 33°53' E 132°35'514.6
2018-Feb-18 06:58N 33°56' E 132°40'7 0.5
2018-Feb-17 17:59N 34°01' E 132°46'511.0
2018-Feb-17 17:30N 33°57' E 132°42'611.2
2018-Feb-17 16:59N 33°53' E 132°36'611.7
2018-Feb-17 16:29N 33°49' E 132°31'3312.0
2018-Feb-17 13:44N 33°44' E 131°52'413.3
2018-Feb-17 13:25N 33°45' E 131°47'613.2
2018-Feb-17 13:00N 33°46' E 131°41'613.0
2018-Feb-17 12:30N 33°47' E 131°33'612.9
2018-Feb-17 12:00N 33°48' E 131°25'612.6
2018-Feb-17 11:30N 33°50' E 131°18'612.4
2018-Feb-17 11:00N 33°51' E 131°11'612.5
2018-Feb-17 10:30N 33°55' E 131°05'611.2
2018-Feb-17 10:00N 33°58' E 130°59'612.3
2018-Feb-17 09:31N 33°54' E 130°54'611.9
2018-Feb-17 09:00N 33°58' E 130°48'612.6
2018-Feb-17 08:30N 33°58' E 130°41'612.2
2018-Feb-17 08:01N 33°57' E 130°33'612.5
2018-Feb-17 07:30N 33°57' E 130°26'611.9
2018-Feb-17 07:00N 33°52' E 130°21'612.7
2018-Feb-17 06:30N 33°46' E 130°18'612.4
2018-Feb-17 06:00N 33°40' E 130°16'612.9
2018-Feb-17 05:30N 33°37' E 130°23'1 2.3
2018-Feb-17 05:00N 33°36' E 130°23'0 0.0
2018-Feb-17 04:30N 33°36' E 130°23'0 0.0
2018-Feb-17 04:00N 33°36' E 130°23'0 0.0
2018-Feb-17 03:30N 33°36' E 130°23'0 0.0
2018-Feb-17 03:00N 33°36' E 130°23'0 0.0
2018-Feb-17 02:30N 33°36' E 130°23'0 0.0
2018-Feb-17 02:00N 33°36' E 130°23'0 0.9
2018-Feb-17 01:30N 33°37' E 130°23'510.5
2018-Feb-17 01:00N 33°39' E 130°18'510.0
2018-Feb-17 00:30N 33°44' E 130°17'611.9
2018-Feb-17 00:01N 33°49' E 130°20'5 9.6
2018-Feb-16 23:30N 33°54' E 130°22'611.9
2018-Feb-16 23:00N 33°58' E 130°28'612.1
2018-Feb-16 22:30N 34°00' E 130°34'612.0
2018-Feb-16 22:00N 34°02' E 130°41'611.0
2018-Feb-16 21:30N 34°02' E 130°48'510.6
2018-Feb-16 21:00N 33°59' E 130°53'5 9.4
2018-Feb-16 20:31N 33°55' E 130°54'4 7.8
2018-Feb-16 20:00N 33°58' E 130°57'3 6.2
2018-Feb-16 19:30N 33°59' E 131°01'611.4
2018-Feb-16 19:00N 33°55' E 131°06'612.0
2018-Feb-16 18:30N 33°52' E 131°12'612.0
2018-Feb-16 18:00N 33°51' E 131°20'611.9
2018-Feb-16 17:30N 33°50' E 131°27'611.7
2018-Feb-16 17:00N 33°49' E 131°34'611.3
2018-Feb-16 16:30N 33°48' E 131°40'611.5
2018-Feb-16 16:00N 33°46' E 131°47'612.3
2018-Feb-16 15:30N 33°44' E 131°54'1412.5
2018-Feb-16 14:24N 33°43' E 132°10'1213.0
2018-Feb-16 13:29N 33°46' E 132°24'712.5
2018-Feb-16 12:57N 33°49' E 132°31'612.3
2018-Feb-16 12:30N 33°53' E 132°36'611.3
2018-Feb-16 11:59N 33°57' E 132°41'5 0.2
2018-Feb-15 07:34N 34°01' E 132°46'112.8
2018-Feb-15 07:29N 33°60' E 132°45'612.0
2018-Feb-15 07:00N 33°56' E 132°40'812.3
2018-Feb-15 06:23N 33°50' E 132°34'512.4
2018-Feb-15 05:59N 33°48' E 132°29'612.7
2018-Feb-15 05:29N 33°44' E 132°22'2312.8
2018-Feb-15 03:41N 33°43' E 131°54'214.1
2018-Feb-15 03:30N 33°43' E 131°51'914.3
2018-Feb-15 02:51N 33°46' E 131°40'514.2
2018-Feb-15 02:30N 33°47' E 131°35'714.1
2018-Feb-15 02:00N 33°48' E 131°26'713.7
2018-Feb-15 01:30N 33°50' E 131°18'713.1
2018-Feb-15 01:00N 33°52' E 131°11'613.0
2018-Feb-15 00:31N 33°55' E 131°05'611.2
2018-Feb-15 00:01N 33°58' E 130°59'4 8.8
2018-Feb-14 23:30N 33°55' E 130°56'4 8.5
2018-Feb-14 23:01N 33°58' E 130°52'612.4
2018-Feb-14 22:30N 34°04' E 130°51'713.5
2018-Feb-14 22:01N 34°10' E 130°50'713.3
2018-Feb-14 21:30N 34°17' E 130°48'612.7
2018-Feb-14 21:00N 34°23' E 130°49'5 0.1
2018-Feb-13 08:44N 34°26' E 130°54'513.1
2018-Feb-13 08:20N 34°23' E 130°48'711.6
2018-Feb-13 07:46N 34°16' E 130°48'312.2
2018-Feb-13 07:30N 34°13' E 130°49'612.0
2018-Feb-13 07:00N 34°07' E 130°50'612.2
2018-Feb-13 06:30N 34°02' E 130°52'611.3
2018-Feb-13 06:01N 33°56' E 130°53'3 6.1
2018-Feb-13 05:31N 33°57' E 130°56'5 9.0
2018-Feb-13 05:00N 33°58' E 131°02'611.7
2018-Feb-13 04:31N 33°54' E 131°06'0 0.5
2018-Feb-13 04:00N 33°54' E 131°06'0 0.0
2018-Feb-13 03:30N 33°54' E 131°06'0 0.0
2018-Feb-13 02:58N 33°54' E 131°06'0 0.0
2018-Feb-13 02:28N 33°54' E 131°06'0 0.0
2018-Feb-13 01:58N 33°54' E 131°06'0 0.0
2018-Feb-13 01:28N 33°54' E 131°06'0 0.0
2018-Feb-13 00:58N 33°54' E 131°06'0 0.1
2018-Feb-13 00:28N 33°54' E 131°06'0 0.1
2018-Feb-12 23:58N 33°54' E 131°06'0 0.1
2018-Feb-12 23:28N 33°54' E 131°06'0 0.0
2018-Feb-12 22:58N 33°54' E 131°06'0 0.0
2018-Feb-12 22:28N 33°54' E 131°06'0 0.1
2018-Feb-12 21:58N 33°54' E 131°06'0 0.1
2018-Feb-12 21:28N 33°54' E 131°06'0 0.0
2018-Feb-12 20:55N 33°54' E 131°06'0 0.0
2018-Feb-12 20:28N 33°54' E 131°06'0 0.0
2018-Feb-12 19:58N 33°54' E 131°06'0 0.0
2018-Feb-12 19:28N 33°54' E 131°06'0 0.1
2018-Feb-12 18:58N 33°54' E 131°06'  
Track history (hours):
 
Tides and Currents Weather Stations Pressure Air Temp Water Temp Dewpoint Dewpoint Depression Visibility Wind Speed Wind Dir Waves Ship Positions

Aikou Maru

Last reported at 2018-Feb-22 18:30 UTC. Time now 2018-Feb-22 18:43 UTC.
Position N 34°57' E 136°45'.

Length 89 m; draft 5.7 m.

Type: Tanker. MMSI: 431003751.

Date/timePositionNaut miles runAvg speedWind from/ knotsBaromVisibWave heightAir tempDewpointWater temp
2018-Feb-22 18:30N 34°57' E 136°45'0 0.1
2018-Feb-22 18:00N 34°57' E 136°45'0 0.0
2018-Feb-22 17:30N 34°57' E 136°45'0 0.0
2018-Feb-22 17:00N 34°57' E 136°45'0 0.0
2018-Feb-22 16:30N 34°57' E 136°45'0 0.0
2018-Feb-22 16:00N 34°57' E 136°45'0 0.0
2018-Feb-22 15:30N 34°57' E 136°45'0 0.0
2018-Feb-22 14:59N 34°57' E 136°45'0 0.0
2018-Feb-22 14:30N 34°57' E 136°45'0 0.0
2018-Feb-22 14:00N 34°57' E 136°45'0 0.0
2018-Feb-22 13:30N 34°57' E 136°45'0 0.0
2018-Feb-22 13:00N 34°57' E 136°45'0 0.0
2018-Feb-22 12:30N 34°57' E 136°45'0 0.0
2018-Feb-22 12:00N 34°57' E 136°45'0 0.0
2018-Feb-22 11:30N 34°57' E 136°45'0 0.1
2018-Feb-22 11:00N 34°57' E 136°45'0 0.1
2018-Feb-22 10:30N 34°57' E 136°45'0 0.0
2018-Feb-22 10:00N 34°57' E 136°45'1 1.2
2018-Feb-22 09:30N 34°57' E 136°46'612.6
2018-Feb-22 09:00N 34°51' E 136°46'713.1
2018-Feb-22 08:30N 34°44' E 136°49'103 8.4
2018-Feb-21 20:11N 33°49' E 135°03'213.6
2018-Feb-21 20:00N 33°51' E 135°02'713.5
2018-Feb-21 19:30N 33°57' E 134°59'713.6
2018-Feb-21 19:00N 34°04' E 134°59'713.5
2018-Feb-21 18:30N 34°11' E 134°59'713.3
2018-Feb-21 18:01N 34°18' E 134°59'713.6
2018-Feb-21 17:30N 34°24' E 135°00'713.3
2018-Feb-21 17:00N 34°31' E 135°02'611.0
2018-Feb-21 16:30N 34°36' E 135°03'511.1
2018-Feb-21 16:00N 34°36' E 134°56'611.3
2018-Feb-21 15:30N 34°33' E 134°49'611.8
2018-Feb-21 15:00N 34°31' E 134°43'612.2
2018-Feb-21 14:30N 34°29' E 134°36'612.4
2018-Feb-21 14:00N 34°26' E 134°29'89 6.2
2018-Feb-20 23:46N 34°02' E 132°46'414.1
2018-Feb-20 23:29N 33°58' E 132°44'713.3
2018-Feb-20 22:57N 33°54' E 132°37'613.4
2018-Feb-20 22:30N 33°49' E 132°32'713.1
2018-Feb-20 21:59N 33°44' E 132°27'713.0
2018-Feb-20 21:28N 33°40' E 132°21'713.2
2018-Feb-20 20:59N 33°36' E 132°15'1412.7
2018-Feb-20 19:54N 33°26' E 132°03'512.3
2018-Feb-20 19:30N 33°22' E 131°59'611.3
2018-Feb-20 18:59N 33°17' E 132°00'1111.9
2018-Feb-20 18:02N 33°06' E 132°04'011.6
2018-Feb-20 18:01N 33°06' E 132°04'  
2018-Feb-18 10:24N 33°23' E 131°60'1312.3
2018-Feb-18 09:23N 33°32' E 132°10'613.4
2018-Feb-18 08:58N 33°36' E 132°15'713.6
2018-Feb-18 08:28N 33°41' E 132°21'714.0
2018-Feb-18 08:00N 33°46' E 132°26'1014.6
2018-Feb-18 07:19N 33°53' E 132°35'514.6
2018-Feb-18 06:58N 33°56' E 132°40'7 0.5
2018-Feb-17 17:59N 34°01' E 132°46'511.0
2018-Feb-17 17:30N 33°57' E 132°42'611.2
2018-Feb-17 16:59N 33°53' E 132°36'611.7
2018-Feb-17 16:29N 33°49' E 132°31'3312.0
2018-Feb-17 13:44N 33°44' E 131°52'413.3
2018-Feb-17 13:25N 33°45' E 131°47'613.2
2018-Feb-17 13:00N 33°46' E 131°41'613.0
2018-Feb-17 12:30N 33°47' E 131°33'612.9
2018-Feb-17 12:00N 33°48' E 131°25'612.6
2018-Feb-17 11:30N 33°50' E 131°18'612.4
2018-Feb-17 11:00N 33°51' E 131°11'612.5
2018-Feb-17 10:30N 33°55' E 131°05'611.2
2018-Feb-17 10:00N 33°58' E 130°59'612.3
2018-Feb-17 09:31N 33°54' E 130°54'611.9
2018-Feb-17 09:00N 33°58' E 130°48'612.6
2018-Feb-17 08:30N 33°58' E 130°41'612.2
2018-Feb-17 08:01N 33°57' E 130°33'612.5
2018-Feb-17 07:30N 33°57' E 130°26'611.9
2018-Feb-17 07:00N 33°52' E 130°21'612.7
2018-Feb-17 06:30N 33°46' E 130°18'612.4
2018-Feb-17 06:00N 33°40' E 130°16'612.9
2018-Feb-17 05:30N 33°37' E 130°23'1 2.3
2018-Feb-17 05:00N 33°36' E 130°23'0 0.0
2018-Feb-17 04:30N 33°36' E 130°23'0 0.0
2018-Feb-17 04:00N 33°36' E 130°23'0 0.0
2018-Feb-17 03:30N 33°36' E 130°23'0 0.0
2018-Feb-17 03:00N 33°36' E 130°23'0 0.0
2018-Feb-17 02:30N 33°36' E 130°23'0 0.0
2018-Feb-17 02:00N 33°36' E 130°23'0 0.9
2018-Feb-17 01:30N 33°37' E 130°23'510.5
2018-Feb-17 01:00N 33°39' E 130°18'510.0
2018-Feb-17 00:30N 33°44' E 130°17'611.9
2018-Feb-17 00:01N 33°49' E 130°20'5 9.6
2018-Feb-16 23:30N 33°54' E 130°22'611.9
2018-Feb-16 23:00N 33°58' E 130°28'612.1
2018-Feb-16 22:30N 34°00' E 130°34'612.0
2018-Feb-16 22:00N 34°02' E 130°41'611.0
2018-Feb-16 21:30N 34°02' E 130°48'510.6
2018-Feb-16 21:00N 33°59' E 130°53'5 9.4
2018-Feb-16 20:31N 33°55' E 130°54'4 7.8
2018-Feb-16 20:00N 33°58' E 130°57'3 6.2
2018-Feb-16 19:30N 33°59' E 131°01'611.4
2018-Feb-16 19:00N 33°55' E 131°06'612.0
2018-Feb-16 18:30N 33°52' E 131°12'612.0
2018-Feb-16 18:00N 33°51' E 131°20'611.9
2018-Feb-16 17:30N 33°50' E 131°27'611.7
2018-Feb-16 17:00N 33°49' E 131°34'611.3
2018-Feb-16 16:30N 33°48' E 131°40'611.5
2018-Feb-16 16:00N 33°46' E 131°47'612.3
2018-Feb-16 15:30N 33°44' E 131°54'1412.5
2018-Feb-16 14:24N 33°43' E 132°10'1213.0
2018-Feb-16 13:29N 33°46' E 132°24'712.5
2018-Feb-16 12:57N 33°49' E 132°31'612.3
2018-Feb-16 12:30N 33°53' E 132°36'611.3
2018-Feb-16 11:59N 33°57' E 132°41'5 0.2
2018-Feb-15 07:34N 34°01' E 132°46'112.8
2018-Feb-15 07:29N 33°60' E 132°45'612.0
2018-Feb-15 07:00N 33°56' E 132°40'812.3
2018-Feb-15 06:23N 33°50' E 132°34'512.4
2018-Feb-15 05:59N 33°48' E 132°29'612.7
2018-Feb-15 05:29N 33°44' E 132°22'2312.8
2018-Feb-15 03:41N 33°43' E 131°54'214.1
2018-Feb-15 03:30N 33°43' E 131°51'914.3
2018-Feb-15 02:51N 33°46' E 131°40'514.2
2018-Feb-15 02:30N 33°47' E 131°35'714.1
2018-Feb-15 02:00N 33°48' E 131°26'713.7
2018-Feb-15 01:30N 33°50' E 131°18'713.1
2018-Feb-15 01:00N 33°52' E 131°11'613.0
2018-Feb-15 00:31N 33°55' E 131°05'611.2
2018-Feb-15 00:01N 33°58' E 130°59'4 8.8
2018-Feb-14 23:30N 33°55' E 130°56'4 8.5
2018-Feb-14 23:01N 33°58' E 130°52'612.4
2018-Feb-14 22:30N 34°04' E 130°51'713.5
2018-Feb-14 22:01N 34°10' E 130°50'713.3
2018-Feb-14 21:30N 34°17' E 130°48'612.7
2018-Feb-14 21:00N 34°23' E 130°49'5 0.1
2018-Feb-13 08:44N 34°26' E 130°54'513.1
2018-Feb-13 08:20N 34°23' E 130°48'711.6
2018-Feb-13 07:46N 34°16' E 130°48'312.2
2018-Feb-13 07:30N 34°13' E 130°49'612.0
2018-Feb-13 07:00N 34°07' E 130°50'612.2
2018-Feb-13 06:30N 34°02' E 130°52'611.3
2018-Feb-13 06:01N 33°56' E 130°53'3 6.1
2018-Feb-13 05:31N 33°57' E 130°56'5 9.0
2018-Feb-13 05:00N 33°58' E 131°02'611.7
2018-Feb-13 04:31N 33°54' E 131°06'0 0.5
2018-Feb-13 04:00N 33°54' E 131°06'0 0.0
2018-Feb-13 03:30N 33°54' E 131°06'0 0.0
2018-Feb-13 02:58N 33°54' E 131°06'0 0.0
2018-Feb-13 02:28N 33°54' E 131°06'0 0.0
2018-Feb-13 01:58N 33°54' E 131°06'0 0.0
2018-Feb-13 01:28N 33°54' E 131°06'0 0.0
2018-Feb-13 00:58N 33°54' E 131°06'0 0.1
2018-Feb-13 00:28N 33°54' E 131°06'0 0.1
2018-Feb-12 23:58N 33°54' E 131°06'0 0.1
2018-Feb-12 23:28N 33°54' E 131°06'0 0.0
2018-Feb-12 22:58N 33°54' E 131°06'0 0.0
2018-Feb-12 22:28N 33°54' E 131°06'0 0.1
2018-Feb-12 21:58N 33°54' E 131°06'0 0.1
2018-Feb-12 21:28N 33°54' E 131°06'0 0.0
2018-Feb-12 20:55N 33°54' E 131°06'0 0.0
2018-Feb-12 20:28N 33°54' E 131°06'0 0.0
2018-Feb-12 19:58N 33°54' E 131°06'0 0.0
2018-Feb-12 19:28N 33°54' E 131°06'0 0.1
2018-Feb-12 18:58N 33°54' E 131°06'  

Dump ship's entire track history